Pagrindinis puslapis
METAR-TAF:

METAR-TAF

Oro uostai :

Dibrugarh, Indija

platuma: 27-29N, ilguma: 095-01E, Aukštis: 110 m

Dabartinis oras

Ataskaita buvo paskelbta 58 minutes, ne 14:30 UTC
Vėjas 6 kt iš Vakarų
Temperatūra 25°C
Drėgmė 65%
Slėgis 1007 hPa
Matomumas: 3000 m
Mažai debesys ne aukštis 2000 ft
Išsisklaidę debesys ne aukštis 10000 ft
rūkana

METAR: VEMN 291430Z 27006KT 3000 BR FEW020 SCT100 25/18 Q1007 NOSIG

Laikas: 20:58 (15:28 UTC)

Prognozė

Ataskaita buvo paskelbta 7 valandos ir 28 minutes, ne 08:00 UTC
Prognozė galioja nuo 29 metu 09 UTC su 29 metu 18 UTC
Vėjas 9 kt iš Šiaurės Rytų
Matomumas: 5000 m
Mažai debesys ne aukštis 2000 ft
Išsisklaidę debesys ne aukštis 10000 ft
migla
Tapsmas
nuo 29 metu 15 UTC su 29 metu 18 UTC
Vėjas 5 kt iš Šiaurės/Šiaurės Rytų
Matomumas: 4000 m
Mažai debesys ne aukštis 2000 ft
Su prošvaistėmis ne aukštis 10000 ft
migla

TAF: VEMN 290800Z 2909/2918 05009KT 5000 HZ FEW020 SCT100 BECMG 2915/2918 02005KT 4000 HZ FEW020 BKN100

Orai ataskaitas ir orų prognozės (METAR, TAF).

turimą stotys yra geltonos ir raudonos taškus žemėlapyje.

Perkelti pele per norėdami pamatyti stoties vardą.

Tada spustelėkite, norėdami matyti oro stebėjimo ir prognozės.

Norėdami pakeisti žemėlapį: spustelėkite ant žalios mygtukų su juodo kryžiaus žemyn,; žalią mygtuką su brūkšneliu, jei norite nutolinti; arba žalių rodyklių gretimoms žemėlapius.


METAR-TAF: